sensor_id;sensor_type;location;lat;lon;timestamp;P1;durP1;ratioP1;P2;durP2;ratioP2
37309;SDS011;23195;47.744;7.358;2022-12-01T09:45:23;36.93;;;15.33;;
37309;SDS011;23195;47.744;7.358;2022-12-01T09:47:52;36.63;;;15.70;;
37309;SDS011;23195;47.744;7.358;2022-12-01T09:50:21;35.50;;;15.83;;
37309;SDS011;23195;47.744;7.358;2022-12-01T09:55:18;33.83;;;15.70;;
37309;SDS011;23195;47.744;7.358;2022-12-01T09:57:51;37.30;;;16.27;;
37309;SDS011;23195;47.744;7.358;2022-12-01T10:00:19;39.23;;;16.10;;
37309;SDS011;23195;47.744;7.358;2022-12-01T10:02:57;39.97;;;16.47;;
37309;SDS011;23195;47.744;7.358;2022-12-01T10:05:45;32.63;;;15.00;;
37309;SDS011;23195;47.744;7.358;2022-12-01T10:08:25;36.77;;;15.83;;
37309;SDS011;23195;47.744;7.358;2022-12-01T10:10:54;62.47;;;21.33;;
37309;SDS011;23195;47.744;7.358;2022-12-01T10:13:45;38.43;;;17.00;;
37309;SDS011;23195;47.744;7.358;2022-12-01T10:16:12;36.67;;;16.40;;
37309;SDS011;23195;47.744;7.358;2022-12-01T10:25:23;42.83;;;17.10;;
37309;SDS011;23195;47.744;7.358;2022-12-01T10:30:18;42.40;;;17.60;;
37309;SDS011;23195;47.744;7.358;2022-12-01T10:32:50;37.47;;;16.63;;
37309;SDS011;23195;47.744;7.358;2022-12-01T10:35:41;40.23;;;17.53;;
37309;SDS011;23195;47.744;7.358;2022-12-01T10:38:17;40.50;;;16.60;;
37309;SDS011;23195;47.744;7.358;2022-12-01T10:40:52;35.10;;;16.73;;
37309;SDS011;23195;47.744;7.358;2022-12-01T10:43:36;41.20;;;18.47;;
37309;SDS011;23195;47.744;7.358;2022-12-01T10:46:24;42.67;;;18.73;;
37309;SDS011;23195;47.744;7.358;2022-12-01T10:49:08;38.63;;;16.70;;
37309;SDS011;23195;47.744;7.358;2022-12-01T10:51:47;34.90;;;16.43;;
37309;SDS011;23195;47.744;7.358;2022-12-01T10:54:13;36.30;;;16.40;;
37309;SDS011;23195;47.744;7.358;2022-12-01T10:56:39;40.23;;;17.10;;
37309;SDS011;23195;47.744;7.358;2022-12-01T10:59:19;40.67;;;16.13;;
37309;SDS011;23195;47.744;7.358;2022-12-01T11:01:50;38.70;;;17.17;;
37309;SDS011;23195;47.744;7.358;2022-12-01T11:07:01;38.07;;;17.73;;
37309;SDS011;23195;47.744;7.358;2022-12-01T11:09:29;37.90;;;17.00;;
37309;SDS011;23195;47.744;7.358;2022-12-01T11:11:56;36.70;;;16.27;;
37309;SDS011;23195;47.744;7.358;2022-12-01T11:14:25;34.83;;;16.07;;
37309;SDS011;23195;47.744;7.358;2022-12-01T11:19:56;40.93;;;16.70;;
37309;SDS011;23195;47.744;7.358;2022-12-01T11:22:28;41.70;;;17.40;;
37309;SDS011;23195;47.744;7.358;2022-12-01T11:24:56;39.33;;;16.20;;
37309;SDS011;23195;47.744;7.358;2022-12-01T11:27:26;38.23;;;16.47;;
37309;SDS011;23195;47.744;7.358;2022-12-01T11:29:59;38.07;;;16.97;;
37309;SDS011;23195;47.744;7.358;2022-12-01T11:32:29;36.60;;;15.77;;
37309;SDS011;23195;47.744;7.358;2022-12-01T11:35:02;37.90;;;17.13;;
37309;SDS011;23195;47.744;7.358;2022-12-01T11:37:42;41.87;;;18.03;;
37309;SDS011;23195;47.744;7.358;2022-12-01T11:40:20;40.30;;;18.47;;
37309;SDS011;23195;47.744;7.358;2022-12-01T11:43:05;39.53;;;18.13;;
37309;SDS011;23195;47.744;7.358;2022-12-01T11:45:32;43.13;;;17.83;;
37309;SDS011;23195;47.744;7.358;2022-12-01T11:48:05;41.27;;;18.00;;
37309;SDS011;23195;47.744;7.358;2022-12-01T11:51:08;42.00;;;17.63;;
37309;SDS011;23195;47.744;7.358;2022-12-01T11:53:50;43.67;;;19.37;;
37309;SDS011;23195;47.744;7.358;2022-12-01T11:56:39;43.00;;;18.40;;
37309;SDS011;23195;47.744;7.358;2022-12-01T11:59:15;38.60;;;17.97;;
37309;SDS011;23195;47.744;7.358;2022-12-01T12:07:44;36.97;;;17.30;;
37309;SDS011;23195;47.744;7.358;2022-12-01T12:10:22;37.17;;;16.93;;
37309;SDS011;23195;47.744;7.358;2022-12-01T12:15:47;39.73;;;16.30;;
37309;SDS011;23195;47.744;7.358;2022-12-01T12:18:48;36.67;;;16.20;;
37309;SDS011;23195;47.744;7.358;2022-12-01T12:21:41;37.37;;;15.87;;
37309;SDS011;23195;47.744;7.358;2022-12-01T12:30:36;35.20;;;15.97;;
37309;SDS011;23195;47.744;7.358;2022-12-01T12:41:54;38.50;;;16.70;;
37309;SDS011;23195;47.744;7.358;2022-12-01T12:52:39;38.43;;;16.10;;
37309;SDS011;23195;47.744;7.358;2022-12-01T12:55:10;34.33;;;15.70;;
37309;SDS011;23195;47.744;7.358;2022-12-01T12:57:54;37.70;;;16.10;;
37309;SDS011;23195;47.744;7.358;2022-12-01T13:00:27;37.50;;;16.93;;
37309;SDS011;23195;47.744;7.358;2022-12-01T13:05:52;37.47;;;15.87;;
37309;SDS011;23195;47.744;7.358;2022-12-01T13:09:09;37.20;;;15.37;;
37309;SDS011;23195;47.744;7.358;2022-12-01T13:11:26;33.37;;;15.23;;
37309;SDS011;23195;47.744;7.358;2022-12-01T13:14:04;37.17;;;16.80;;
37309;SDS011;23195;47.744;7.358;2022-12-01T13:16:40;35.67;;;15.80;;
37309;SDS011;23195;47.744;7.358;2022-12-01T13:19:26;38.23;;;16.10;;
37309;SDS011;23195;47.744;7.358;2022-12-01T13:21:54;35.13;;;15.63;;
37309;SDS011;23195;47.744;7.358;2022-12-01T13:24:22;39.50;;;16.73;;
37309;SDS011;23195;47.744;7.358;2022-12-01T13:29:52;36.73;;;15.50;;
37309;SDS011;23195;47.744;7.358;2022-12-01T13:34:54;34.77;;;15.17;;
37309;SDS011;23195;47.744;7.358;2022-12-01T13:37:38;38.80;;;16.17;;
37309;SDS011;23195;47.744;7.358;2022-12-01T13:40:09;36.00;;;15.33;;
37309;SDS011;23195;47.744;7.358;2022-12-01T13:42:53;36.67;;;16.27;;
37309;SDS011;23195;47.744;7.358;2022-12-01T13:45:23;35.77;;;15.37;;
37309;SDS011;23195;47.744;7.358;2022-12-01T13:47:50;40.23;;;16.07;;
37309;SDS011;23195;47.744;7.358;2022-12-01T13:55:51;36.17;;;15.83;;
37309;SDS011;23195;47.744;7.358;2022-12-01T14:03:55;37.77;;;16.13;;
37309;SDS011;23195;47.744;7.358;2022-12-01T14:14:39;37.53;;;16.27;;
37309;SDS011;23195;47.744;7.358;2022-12-01T14:17:23;39.10;;;17.37;;
37309;SDS011;23195;47.744;7.358;2022-12-01T14:19:52;37.40;;;16.87;;
37309;SDS011;23195;47.744;7.358;2022-12-01T14:25:27;35.77;;;16.40;;
37309;SDS011;23195;47.744;7.358;2022-12-01T14:27:57;38.87;;;17.00;;
37309;SDS011;23195;47.744;7.358;2022-12-01T14:49:25;40.83;;;17.63;;
37309;SDS011;23195;47.744;7.358;2022-12-01T14:51:57;38.70;;;16.73;;
37309;SDS011;23195;47.744;7.358;2022-12-01T14:54:33;38.40;;;17.33;;
37309;SDS011;23195;47.744;7.358;2022-12-01T14:57:07;41.03;;;17.60;;
37309;SDS011;23195;47.744;7.358;2022-12-01T14:59:36;36.73;;;16.37;;
37309;SDS011;23195;47.744;7.358;2022-12-01T15:02:03;37.23;;;16.80;;
37309;SDS011;23195;47.744;7.358;2022-12-01T15:05:19;37.87;;;16.70;;
37309;SDS011;23195;47.744;7.358;2022-12-01T15:07:40;38.20;;;16.70;;
37309;SDS011;23195;47.744;7.358;2022-12-01T15:10:15;40.47;;;16.40;;
37309;SDS011;23195;47.744;7.358;2022-12-01T15:12:43;39.57;;;17.03;;
37309;SDS011;23195;47.744;7.358;2022-12-01T15:15:13;38.33;;;15.97;;
37309;SDS011;23195;47.744;7.358;2022-12-01T15:17:40;35.03;;;15.80;;
37309;SDS011;23195;47.744;7.358;2022-12-01T15:22:52;35.30;;;15.67;;
37309;SDS011;23195;47.744;7.358;2022-12-01T15:25:19;41.67;;;18.47;;
37309;SDS011;23195;47.744;7.358;2022-12-01T15:27:45;38.93;;;17.30;;
37309;SDS011;23195;47.744;7.358;2022-12-01T15:30:24;39.33;;;17.77;;
37309;SDS011;23195;47.744;7.358;2022-12-01T15:32:50;39.23;;;17.13;;
37309;SDS011;23195;47.744;7.358;2022-12-01T15:35:20;35.77;;;16.63;;
37309;SDS011;23195;47.744;7.358;2022-12-01T15:37:47;36.80;;;17.03;;
37309;SDS011;23195;47.744;7.358;2022-12-01T15:40:18;57.07;;;22.23;;
37309;SDS011;23195;47.744;7.358;2022-12-01T15:42:58;50.10;;;19.60;;
37309;SDS011;23195;47.744;7.358;2022-12-01T15:45:28;42.80;;;18.33;;
37309;SDS011;23195;47.744;7.358;2022-12-01T15:47:54;45.87;;;20.83;;
37309;SDS011;23195;47.744;7.358;2022-12-01T15:50:35;38.20;;;16.77;;
37309;SDS011;23195;47.744;7.358;2022-12-01T15:53:18;35.23;;;17.60;;
37309;SDS011;23195;47.744;7.358;2022-12-01T15:55:46;44.90;;;21.50;;
37309;SDS011;23195;47.744;7.358;2022-12-01T15:58:20;39.40;;;17.67;;
37309;SDS011;23195;47.744;7.358;2022-12-01T16:01:03;39.43;;;17.63;;
37309;SDS011;23195;47.744;7.358;2022-12-01T16:03:42;38.23;;;16.77;;
37309;SDS011;23195;47.744;7.358;2022-12-01T16:06:24;38.83;;;17.10;;
37309;SDS011;23195;47.744;7.358;2022-12-01T16:08:54;35.47;;;16.37;;
37309;SDS011;23195;47.744;7.358;2022-12-01T16:11:23;37.80;;;16.53;;
37309;SDS011;23195;47.744;7.358;2022-12-01T16:16:45;36.90;;;16.13;;
37309;SDS011;23195;47.744;7.358;2022-12-01T16:21:58;40.17;;;17.30;;
37309;SDS011;23195;47.744;7.358;2022-12-01T16:27:03;40.13;;;16.77;;
37309;SDS011;23195;47.744;7.358;2022-12-01T16:29:42;34.77;;;16.27;;
37309;SDS011;23195;47.744;7.358;2022-12-01T16:32:11;36.80;;;15.87;;
37309;SDS011;23195;47.744;7.358;2022-12-01T16:34:42;37.33;;;16.70;;
37309;SDS011;23195;47.744;7.358;2022-12-01T16:37:10;37.13;;;16.47;;
37309;SDS011;23195;47.744;7.358;2022-12-01T16:39:36;37.30;;;16.63;;
37309;SDS011;23195;47.744;7.358;2022-12-01T16:42:02;36.67;;;17.10;;
37309;SDS011;23195;47.744;7.358;2022-12-01T16:44:37;43.03;;;18.23;;
37309;SDS011;23195;47.744;7.358;2022-12-01T16:47:08;39.83;;;17.63;;
37309;SDS011;23195;47.744;7.358;2022-12-01T16:49:39;38.90;;;17.43;;
37309;SDS011;23195;47.744;7.358;2022-12-01T16:52:05;45.70;;;17.40;;
37309;SDS011;23195;47.744;7.358;2022-12-01T16:54:34;42.63;;;19.33;;
37309;SDS011;23195;47.744;7.358;2022-12-01T16:57:07;39.43;;;18.00;;
37309;SDS011;23195;47.744;7.358;2022-12-01T16:59:33;46.23;;;19.53;;
37309;SDS011;23195;47.744;7.358;2022-12-01T17:01:59;37.93;;;17.13;;
37309;SDS011;23195;47.744;7.358;2022-12-01T17:04:25;40.60;;;16.77;;
37309;SDS011;23195;47.744;7.358;2022-12-01T17:06:52;35.17;;;16.47;;
37309;SDS011;23195;47.744;7.358;2022-12-01T17:09:18;37.80;;;17.70;;
37309;SDS011;23195;47.744;7.358;2022-12-01T17:11:44;37.20;;;16.80;;
37309;SDS011;23195;47.744;7.358;2022-12-01T17:14:10;40.37;;;16.90;;
37309;SDS011;23195;47.744;7.358;2022-12-01T17:16:36;39.83;;;18.93;;
37309;SDS011;23195;47.744;7.358;2022-12-01T17:19:02;40.13;;;17.47;;
37309;SDS011;23195;47.744;7.358;2022-12-01T17:21:28;37.50;;;17.90;;
37309;SDS011;23195;47.744;7.358;2022-12-01T17:23:54;38.27;;;17.53;;
37309;SDS011;23195;47.744;7.358;2022-12-01T17:26:20;41.90;;;17.27;;
37309;SDS011;23195;47.744;7.358;2022-12-01T17:28:47;38.93;;;18.07;;
37309;SDS011;23195;47.744;7.358;2022-12-01T17:31:13;38.50;;;17.50;;
37309;SDS011;23195;47.744;7.358;2022-12-01T17:33:39;40.73;;;18.13;;
37309;SDS011;23195;47.744;7.358;2022-12-01T17:36:09;38.33;;;17.63;;
37309;SDS011;23195;47.744;7.358;2022-12-01T17:38:37;39.37;;;17.27;;
37309;SDS011;23195;47.744;7.358;2022-12-01T17:41:10;39.60;;;18.43;;
37309;SDS011;23195;47.744;7.358;2022-12-01T17:43:39;41.90;;;18.00;;
37309;SDS011;23195;47.744;7.358;2022-12-01T17:46:13;41.70;;;19.17;;
37309;SDS011;23195;47.744;7.358;2022-12-01T17:48:40;42.00;;;18.87;;
37309;SDS011;23195;47.744;7.358;2022-12-01T17:51:11;42.97;;;17.67;;
37309;SDS011;23195;47.744;7.358;2022-12-01T17:53:43;40.77;;;17.73;;
37309;SDS011;23195;47.744;7.358;2022-12-01T17:56:10;44.97;;;18.57;;
37309;SDS011;23195;47.744;7.358;2022-12-01T17:58:38;41.83;;;18.07;;
37309;SDS011;23195;47.744;7.358;2022-12-01T18:01:04;42.03;;;18.70;;
37309;SDS011;23195;47.744;7.358;2022-12-01T18:03:31;38.47;;;18.20;;
37309;SDS011;23195;47.744;7.358;2022-12-01T18:05:57;43.10;;;18.40;;
37309;SDS011;23195;47.744;7.358;2022-12-01T18:08:25;40.93;;;17.30;;
37309;SDS011;23195;47.744;7.358;2022-12-01T18:10:52;40.90;;;18.00;;
37309;SDS011;23195;47.744;7.358;2022-12-01T18:13:19;41.67;;;17.77;;
37309;SDS011;23195;47.744;7.358;2022-12-01T18:15:45;40.43;;;17.00;;
37309;SDS011;23195;47.744;7.358;2022-12-01T18:18:11;44.03;;;17.27;;
37309;SDS011;23195;47.744;7.358;2022-12-01T18:20:40;44.20;;;18.90;;
37309;SDS011;23195;47.744;7.358;2022-12-01T18:23:07;44.70;;;18.87;;
37309;SDS011;23195;47.744;7.358;2022-12-01T18:25:34;42.33;;;18.63;;
37309;SDS011;23195;47.744;7.358;2022-12-01T18:28:00;45.63;;;20.10;;
37309;SDS011;23195;47.744;7.358;2022-12-01T18:30:27;42.80;;;18.83;;
37309;SDS011;23195;47.744;7.358;2022-12-01T18:32:53;41.60;;;18.93;;
37309;SDS011;23195;47.744;7.358;2022-12-01T18:35:19;43.73;;;19.27;;
37309;SDS011;23195;47.744;7.358;2022-12-01T18:37:45;48.67;;;19.03;;
37309;SDS011;23195;47.744;7.358;2022-12-01T18:40:11;46.87;;;19.87;;
37309;SDS011;23195;47.744;7.358;2022-12-01T18:42:37;45.57;;;19.87;;
37309;SDS011;23195;47.744;7.358;2022-12-01T18:45:03;44.83;;;19.67;;
37309;SDS011;23195;47.744;7.358;2022-12-01T18:47:29;45.33;;;19.50;;
37309;SDS011;23195;47.744;7.358;2022-12-01T18:49:54;45.00;;;19.37;;
37309;SDS011;23195;47.744;7.358;2022-12-01T18:52:20;46.43;;;19.00;;
37309;SDS011;23195;47.744;7.358;2022-12-01T18:54:46;43.63;;;20.53;;
37309;SDS011;23195;47.744;7.358;2022-12-01T18:57:12;45.10;;;19.07;;
37309;SDS011;23195;47.744;7.358;2022-12-01T18:59:39;46.17;;;19.53;;
37309;SDS011;23195;47.744;7.358;2022-12-01T19:02:05;49.57;;;19.80;;
37309;SDS011;23195;47.744;7.358;2022-12-01T19:04:31;48.90;;;19.43;;
37309;SDS011;23195;47.744;7.358;2022-12-01T19:06:57;48.03;;;20.37;;
37309;SDS011;23195;47.744;7.358;2022-12-01T19:09:23;49.57;;;20.23;;
37309;SDS011;23195;47.744;7.358;2022-12-01T19:11:49;47.37;;;19.67;;
37309;SDS011;23195;47.744;7.358;2022-12-01T19:14:22;45.57;;;19.53;;
37309;SDS011;23195;47.744;7.358;2022-12-01T19:16:48;43.80;;;19.57;;
37309;SDS011;23195;47.744;7.358;2022-12-01T19:19:14;47.67;;;20.47;;
37309;SDS011;23195;47.744;7.358;2022-12-01T19:21:40;56.10;;;26.53;;
37309;SDS011;23195;47.744;7.358;2022-12-01T19:24:06;47.37;;;20.80;;
37309;SDS011;23195;47.744;7.358;2022-12-01T19:26:32;46.97;;;19.27;;
37309;SDS011;23195;47.744;7.358;2022-12-01T19:29:02;47.90;;;19.37;;
37309;SDS011;23195;47.744;7.358;2022-12-01T19:31:28;52.00;;;21.47;;
37309;SDS011;23195;47.744;7.358;2022-12-01T19:33:56;54.53;;;20.77;;
37309;SDS011;23195;47.744;7.358;2022-12-01T19:36:23;48.63;;;21.47;;
37309;SDS011;23195;47.744;7.358;2022-12-01T19:38:50;50.17;;;20.27;;
37309;SDS011;23195;47.744;7.358;2022-12-01T19:41:17;47.80;;;20.20;;
37309;SDS011;23195;47.744;7.358;2022-12-01T19:43:49;50.73;;;20.83;;
37309;SDS011;23195;47.744;7.358;2022-12-01T19:46:20;52.60;;;21.83;;
37309;SDS011;23195;47.744;7.358;2022-12-01T19:48:51;49.93;;;21.70;;
37309;SDS011;23195;47.744;7.358;2022-12-01T19:51:24;53.40;;;21.70;;
37309;SDS011;23195;47.744;7.358;2022-12-01T19:53:52;53.20;;;22.00;;
37309;SDS011;23195;47.744;7.358;2022-12-01T19:56:18;46.50;;;19.53;;
37309;SDS011;23195;47.744;7.358;2022-12-01T19:58:45;47.57;;;20.27;;
37309;SDS011;23195;47.744;7.358;2022-12-01T20:01:11;58.97;;;21.30;;
37309;SDS011;23195;47.744;7.358;2022-12-01T20:03:39;49.03;;;19.80;;
37309;SDS011;23195;47.744;7.358;2022-12-01T20:06:12;50.27;;;20.13;;
37309;SDS011;23195;47.744;7.358;2022-12-01T20:08:40;55.03;;;21.43;;
37309;SDS011;23195;47.744;7.358;2022-12-01T20:11:06;52.43;;;20.67;;
37309;SDS011;23195;47.744;7.358;2022-12-01T20:13:33;52.07;;;21.57;;
37309;SDS011;23195;47.744;7.358;2022-12-01T20:16:01;52.33;;;21.43;;
37309;SDS011;23195;47.744;7.358;2022-12-01T20:18:28;47.67;;;20.57;;
37309;SDS011;23195;47.744;7.358;2022-12-01T20:21:01;49.30;;;21.23;;
37309;SDS011;23195;47.744;7.358;2022-12-01T20:23:28;52.27;;;20.90;;
37309;SDS011;23195;47.744;7.358;2022-12-01T20:25:57;47.40;;;21.20;;
37309;SDS011;23195;47.744;7.358;2022-12-01T20:28:24;50.60;;;20.50;;
37309;SDS011;23195;47.744;7.358;2022-12-01T20:30:51;48.77;;;19.90;;
37309;SDS011;23195;47.744;7.358;2022-12-01T20:33:17;46.90;;;19.57;;
37309;SDS011;23195;47.744;7.358;2022-12-01T20:35:42;59.00;;;21.60;;
37309;SDS011;23195;47.744;7.358;2022-12-01T20:38:08;46.80;;;20.53;;
37309;SDS011;23195;47.744;7.358;2022-12-01T20:40:34;47.23;;;20.20;;
37309;SDS011;23195;47.744;7.358;2022-12-01T20:42:59;52.77;;;21.70;;
37309;SDS011;23195;47.744;7.358;2022-12-01T20:45:25;46.70;;;20.23;;
37309;SDS011;23195;47.744;7.358;2022-12-01T20:47:51;52.10;;;21.10;;
37309;SDS011;23195;47.744;7.358;2022-12-01T20:50:17;48.77;;;20.57;;
37309;SDS011;23195;47.744;7.358;2022-12-01T20:52:43;46.63;;;19.77;;
37309;SDS011;23195;47.744;7.358;2022-12-01T20:55:08;50.07;;;21.73;;
37309;SDS011;23195;47.744;7.358;2022-12-01T20:57:34;51.37;;;21.83;;
37309;SDS011;23195;47.744;7.358;2022-12-01T21:00:04;50.37;;;20.60;;
37309;SDS011;23195;47.744;7.358;2022-12-01T21:02:30;47.30;;;20.70;;
37309;SDS011;23195;47.744;7.358;2022-12-01T21:04:56;46.60;;;20.23;;
37309;SDS011;23195;47.744;7.358;2022-12-01T21:07:22;48.67;;;20.43;;
37309;SDS011;23195;47.744;7.358;2022-12-01T21:09:48;54.90;;;21.20;;
37309;SDS011;23195;47.744;7.358;2022-12-01T21:12:15;46.13;;;20.60;;
37309;SDS011;23195;47.744;7.358;2022-12-01T21:17:57;50.70;;;21.13;;
37309;SDS011;23195;47.744;7.358;2022-12-01T21:20:29;51.33;;;21.30;;
37309;SDS011;23195;47.744;7.358;2022-12-01T21:22:59;57.40;;;22.33;;
37309;SDS011;23195;47.744;7.358;2022-12-01T21:25:30;52.47;;;20.37;;
37309;SDS011;23195;47.744;7.358;2022-12-01T21:27:58;49.67;;;20.70;;
37309;SDS011;23195;47.744;7.358;2022-12-01T21:30:27;51.47;;;19.57;;
37309;SDS011;23195;47.744;7.358;2022-12-01T21:32:56;49.33;;;20.27;;
37309;SDS011;23195;47.744;7.358;2022-12-01T21:35:39;48.07;;;21.53;;
37309;SDS011;23195;47.744;7.358;2022-12-01T21:38:05;49.87;;;20.77;;
37309;SDS011;23195;47.744;7.358;2022-12-01T21:40:39;49.97;;;20.80;;
37309;SDS011;23195;47.744;7.358;2022-12-01T21:43:18;53.20;;;21.10;;
37309;SDS011;23195;47.744;7.358;2022-12-01T21:45:55;46.77;;;20.43;;
37309;SDS011;23195;47.744;7.358;2022-12-01T21:48:24;44.43;;;20.47;;
37309;SDS011;23195;47.744;7.358;2022-12-01T21:50:59;48.10;;;20.70;;
37309;SDS011;23195;47.744;7.358;2022-12-01T21:53:30;52.07;;;21.23;;
37309;SDS011;23195;47.744;7.358;2022-12-01T21:56:00;50.67;;;19.93;;
37309;SDS011;23195;47.744;7.358;2022-12-01T21:58:28;50.17;;;20.13;;
37309;SDS011;23195;47.744;7.358;2022-12-01T22:00:59;50.83;;;21.03;;
37309;SDS011;23195;47.744;7.358;2022-12-01T22:08:52;45.27;;;19.67;;
37309;SDS011;23195;47.744;7.358;2022-12-01T22:11:24;49.33;;;20.63;;
37309;SDS011;23195;47.744;7.358;2022-12-01T22:13:54;53.70;;;20.83;;
37309;SDS011;23195;47.744;7.358;2022-12-01T22:16:34;50.50;;;21.17;;
37309;SDS011;23195;47.744;7.358;2022-12-01T22:19:09;54.67;;;21.43;;
37309;SDS011;23195;47.744;7.358;2022-12-01T22:21:51;53.63;;;21.67;;
37309;SDS011;23195;47.744;7.358;2022-12-01T22:24:26;50.43;;;20.80;;
37309;SDS011;23195;47.744;7.358;2022-12-01T22:29:48;45.67;;;19.83;;
37309;SDS011;23195;47.744;7.358;2022-12-01T22:35:23;57.70;;;20.57;;
37309;SDS011;23195;47.744;7.358;2022-12-01T22:45:42;54.03;;;21.27;;
37309;SDS011;23195;47.744;7.358;2022-12-01T22:50:46;52.73;;;21.57;;
37309;SDS011;23195;47.744;7.358;2022-12-01T22:53:14;52.03;;;21.20;;
37309;SDS011;23195;47.744;7.358;2022-12-01T22:55:40;54.47;;;21.53;;
37309;SDS011;23195;47.744;7.358;2022-12-01T22:58:40;55.97;;;22.73;;
37309;SDS011;23195;47.744;7.358;2022-12-01T23:03:52;57.17;;;21.17;;
37309;SDS011;23195;47.744;7.358;2022-12-01T23:09:17;53.00;;;21.37;;
37309;SDS011;23195;47.744;7.358;2022-12-01T23:11:44;52.87;;;22.00;;
37309;SDS011;23195;47.744;7.358;2022-12-01T23:14:18;56.53;;;22.77;;
37309;SDS011;23195;47.744;7.358;2022-12-01T23:16:46;55.33;;;22.23;;
37309;SDS011;23195;47.744;7.358;2022-12-01T23:19:12;54.80;;;22.60;;
37309;SDS011;23195;47.744;7.358;2022-12-01T23:21:38;55.77;;;21.60;;
37309;SDS011;23195;47.744;7.358;2022-12-01T23:24:04;60.00;;;22.37;;
37309;SDS011;23195;47.744;7.358;2022-12-01T23:26:30;56.87;;;22.60;;
37309;SDS011;23195;47.744;7.358;2022-12-01T23:28:58;55.57;;;22.73;;
37309;SDS011;23195;47.744;7.358;2022-12-01T23:31:25;56.20;;;22.67;;
37309;SDS011;23195;47.744;7.358;2022-12-01T23:33:53;61.10;;;23.07;;
37309;SDS011;23195;47.744;7.358;2022-12-01T23:36:23;62.40;;;23.03;;
37309;SDS011;23195;47.744;7.358;2022-12-01T23:38:53;60.90;;;23.63;;
37309;SDS011;23195;47.744;7.358;2022-12-01T23:41:41;60.13;;;23.13;;
37309;SDS011;23195;47.744;7.358;2022-12-01T23:46:47;53.20;;;21.20;;
37309;SDS011;23195;47.744;7.358;2022-12-01T23:49:18;60.33;;;21.70;;
37309;SDS011;23195;47.744;7.358;2022-12-01T23:51:50;59.70;;;24.00;;
37309;SDS011;23195;47.744;7.358;2022-12-01T23:54:18;60.17;;;23.33;;
37309;SDS011;23195;47.744;7.358;2022-12-01T23:56:51;58.17;;;23.07;;
37309;SDS011;23195;47.744;7.358;2022-12-01T23:59:19;59.27;;;23.00;;
